sensor_id;sensor_type;location;lat;lon;timestamp;pressure;altitude;pressure_sealevel;temperature;humidity
5455;BME280;2750;49.050;9.250;2023-02-28T00:02:37;99604.16;;;0.24;80.70
5455;BME280;2750;49.050;9.250;2023-02-28T00:07:38;99605.03;;;0.23;80.48
5455;BME280;2750;49.050;9.250;2023-02-28T00:12:40;99600.66;;;0.13;80.89
5455;BME280;2750;49.050;9.250;2023-02-28T00:17:44;99600.59;;;0.02;81.10
5455;BME280;2750;49.050;9.250;2023-02-28T00:22:47;99603.09;;;0.00;80.45
5455;BME280;2750;49.050;9.250;2023-02-28T00:27:49;99589.53;;;0.05;80.11
5455;BME280;2750;49.050;9.250;2023-02-28T00:32:52;99598.97;;;0.10;79.94
5455;BME280;2750;49.050;9.250;2023-02-28T00:37:53;99594.66;;;0.06;80.02
5455;BME280;2750;49.050;9.250;2023-02-28T00:42:55;99594.59;;;-0.05;80.65
5455;BME280;2750;49.050;9.250;2023-02-28T00:47:58;99598.88;;;-0.01;80.87
5455;BME280;2750;49.050;9.250;2023-02-28T00:53:00;99588.63;;;-0.04;80.63
5455;BME280;2750;49.050;9.250;2023-02-28T00:58:01;99590.34;;;-0.04;80.85
5455;BME280;2750;49.050;9.250;2023-02-28T01:03:04;99597.09;;;-0.06;81.63
5455;BME280;2750;49.050;9.250;2023-02-28T01:08:06;99595.47;;;-0.01;81.70
5455;BME280;2750;49.050;9.250;2023-02-28T01:13:07;99595.38;;;-0.07;82.18
5455;BME280;2750;49.050;9.250;2023-02-28T01:18:10;99583.38;;;-0.19;81.80
5455;BME280;2750;49.050;9.250;2023-02-28T01:23:12;99594.47;;;-0.17;81.64
5455;BME280;2750;49.050;9.250;2023-02-28T01:28:13;99580.88;;;-0.17;82.81
5455;BME280;2750;49.050;9.250;2023-02-28T01:33:16;99581.66;;;-0.24;82.08
5455;BME280;2750;49.050;9.250;2023-02-28T01:38:18;99580.88;;;-0.14;81.85
5455;BME280;2750;49.050;9.250;2023-02-28T01:43:22;99580.78;;;-0.25;82.02
5455;BME280;2750;49.050;9.250;2023-02-28T01:48:27;99573.84;;;-0.38;82.79
5455;BME280;2750;49.050;9.250;2023-02-28T01:53:35;99577.28;;;-0.34;83.23
5455;BME280;2750;49.050;9.250;2023-02-28T01:58:38;99580.94;;;-0.10;83.23
5455;BME280;2750;49.050;9.250;2023-02-28T02:03:41;99574.00;;;-0.23;82.21
5455;BME280;2750;49.050;9.250;2023-02-28T02:08:43;99583.28;;;-0.32;83.34
5455;BME280;2750;49.050;9.250;2023-02-28T02:14:16;99571.38;;;-0.35;82.98
5455;BME280;2750;49.050;9.250;2023-02-28T02:25:12;99564.44;;;-0.46;83.76
5455;BME280;2750;49.050;9.250;2023-02-28T02:30:41;99558.63;;;-0.35;83.00
5455;BME280;2750;49.050;9.250;2023-02-28T02:35:50;99558.41;;;-0.55;84.20
5455;BME280;2750;49.050;9.250;2023-02-28T02:41:01;99550.00;;;-0.47;84.70
5455;BME280;2750;49.050;9.250;2023-02-28T02:46:10;99555.06;;;-0.49;84.44
5455;BME280;2750;49.050;9.250;2023-02-28T02:51:19;99561.13;;;-0.39;83.69
5455;BME280;2750;49.050;9.250;2023-02-28T02:56:26;99557.06;;;-0.18;83.24
5455;BME280;2750;49.050;9.250;2023-02-28T03:01:30;99552.88;;;-0.11;82.92
5455;BME280;2750;49.050;9.250;2023-02-28T03:06:34;99547.09;;;0.10;82.13
5455;BME280;2750;49.050;9.250;2023-02-28T03:11:37;99549.72;;;0.20;82.23
5455;BME280;2750;49.050;9.250;2023-02-28T03:16:53;99548.81;;;0.12;82.23
5455;BME280;2750;49.050;9.250;2023-02-28T03:22:12;99542.06;;;0.23;82.05
5455;BME280;2750;49.050;9.250;2023-02-28T03:27:17;99543.03;;;0.36;81.52
5455;BME280;2750;49.050;9.250;2023-02-28T03:32:26;99542.03;;;0.16;81.23
5455;BME280;2750;49.050;9.250;2023-02-28T03:37:30;99542.97;;;0.31;81.76
5455;BME280;2750;49.050;9.250;2023-02-28T03:42:36;99547.34;;;0.51;80.32
5455;BME280;2750;49.050;9.250;2023-02-28T03:47:42;99554.97;;;0.41;80.40
5455;BME280;2750;49.050;9.250;2023-02-28T03:52:50;99551.84;;;0.91;79.72
5455;BME280;2750;49.050;9.250;2023-02-28T03:57:58;99556.88;;;0.79;79.59
5455;BME280;2750;49.050;9.250;2023-02-28T04:03:03;99562.72;;;0.58;79.89
5455;BME280;2750;49.050;9.250;2023-02-28T04:08:07;99560.94;;;0.42;80.28
5455;BME280;2750;49.050;9.250;2023-02-28T04:13:09;99559.28;;;0.52;80.56
5455;BME280;2750;49.050;9.250;2023-02-28T04:18:10;99564.59;;;0.92;79.00
5455;BME280;2750;49.050;9.250;2023-02-28T04:23:13;99564.56;;;0.85;79.45
5455;BME280;2750;49.050;9.250;2023-02-28T04:28:15;99567.09;;;0.76;79.75
5455;BME280;2750;49.050;9.250;2023-02-28T04:33:16;99559.53;;;1.02;79.17
5455;BME280;2750;49.050;9.250;2023-02-28T04:38:19;99558.66;;;0.95;78.34
5455;BME280;2750;49.050;9.250;2023-02-28T04:43:21;99569.00;;;1.31;78.03
5455;BME280;2750;49.050;9.250;2023-02-28T04:48:22;99573.09;;;0.84;79.36
5455;BME280;2750;49.050;9.250;2023-02-28T04:53:27;99565.59;;;1.26;78.24
5455;BME280;2750;49.050;9.250;2023-02-28T04:58:28;99557.00;;;1.03;78.13
5455;BME280;2750;49.050;9.250;2023-02-28T05:03:30;99563.84;;;1.19;77.51
5455;BME280;2750;49.050;9.250;2023-02-28T05:08:33;99563.91;;;1.22;77.90
5455;BME280;2750;49.050;9.250;2023-02-28T05:13:34;99573.13;;;0.96;78.08
5455;BME280;2750;49.050;9.250;2023-02-28T05:18:36;99560.44;;;1.07;78.11
5455;BME280;2750;49.050;9.250;2023-02-28T05:23:39;99565.63;;;1.29;77.21
5455;BME280;2750;49.050;9.250;2023-02-28T05:28:41;99568.09;;;1.13;76.82
5455;BME280;2750;49.050;9.250;2023-02-28T05:33:42;99568.13;;;1.14;77.42
5455;BME280;2750;49.050;9.250;2023-02-28T05:38:47;99565.44;;;0.87;78.13
5455;BME280;2750;49.050;9.250;2023-02-28T05:43:49;99573.25;;;1.28;77.46
5455;BME280;2750;49.050;9.250;2023-02-28T05:48:50;99574.22;;;1.68;75.97
5455;BME280;2750;49.050;9.250;2023-02-28T05:53:53;99577.59;;;1.47;76.87
5455;BME280;2750;49.050;9.250;2023-02-28T05:58:55;99579.22;;;1.28;76.49
5455;BME280;2750;49.050;9.250;2023-02-28T06:03:56;99576.66;;;1.25;76.82
5455;BME280;2750;49.050;9.250;2023-02-28T06:09:00;99585.94;;;1.05;77.33
5455;BME280;2750;49.050;9.250;2023-02-28T06:14:03;99584.22;;;0.98;77.97
5455;BME280;2750;49.050;9.250;2023-02-28T06:19:05;99592.78;;;1.03;78.52
5455;BME280;2750;49.050;9.250;2023-02-28T06:24:08;99594.44;;;0.95;78.21
5455;BME280;2750;49.050;9.250;2023-02-28T06:29:09;99587.66;;;1.06;78.28
5455;BME280;2750;49.050;9.250;2023-02-28T06:34:11;99596.03;;;0.81;78.79
5455;BME280;2750;49.050;9.250;2023-02-28T06:39:15;99603.66;;;0.75;78.27
5455;BME280;2750;49.050;9.250;2023-02-28T06:44:17;99613.16;;;0.97;77.72
5455;BME280;2750;49.050;9.250;2023-02-28T06:49:18;99609.91;;;1.34;77.32
5455;BME280;2750;49.050;9.250;2023-02-28T06:54:21;99623.66;;;1.67;76.83
5455;BME280;2750;49.050;9.250;2023-02-28T06:59:23;99628.72;;;1.50;76.15
5455;BME280;2750;49.050;9.250;2023-02-28T07:04:24;99642.13;;;1.02;77.10
5455;BME280;2750;49.050;9.250;2023-02-28T07:09:27;99638.09;;;1.48;76.81
5455;BME280;2750;49.050;9.250;2023-02-28T07:14:30;99644.06;;;1.52;75.78
5455;BME280;2750;49.050;9.250;2023-02-28T07:19:31;99637.28;;;1.57;76.59
5455;BME280;2750;49.050;9.250;2023-02-28T07:24:34;99639.03;;;1.71;76.00
5455;BME280;2750;49.050;9.250;2023-02-28T07:29:36;99639.03;;;1.71;75.12
5455;BME280;2750;49.050;9.250;2023-02-28T07:34:38;99645.88;;;1.92;74.87
5455;BME280;2750;49.050;9.250;2023-02-28T07:39:41;99650.94;;;1.77;75.25
5455;BME280;2750;49.050;9.250;2023-02-28T07:44:44;99649.31;;;1.99;74.96
5455;BME280;2750;49.050;9.250;2023-02-28T07:49:45;99646.75;;;2.05;74.75
5455;BME280;2750;49.050;9.250;2023-02-28T07:54:48;99650.97;;;1.80;74.93
5455;BME280;2750;49.050;9.250;2023-02-28T07:59:50;99650.94;;;1.77;75.41
5455;BME280;2750;49.050;9.250;2023-02-28T08:04:51;99642.47;;;2.11;74.48
5455;BME280;2750;49.050;9.250;2023-02-28T08:09:54;99643.31;;;1.89;74.38
5455;BME280;2750;49.050;9.250;2023-02-28T08:14:56;99645.03;;;1.96;75.71
5455;BME280;2750;49.050;9.250;2023-02-28T08:19:57;99654.41;;;1.96;74.69
5455;BME280;2750;49.050;9.250;2023-02-28T08:25:00;99651.03;;;2.47;74.31
5455;BME280;2750;49.050;9.250;2023-02-28T08:30:03;99636.53;;;2.46;72.74
5455;BME280;2750;49.050;9.250;2023-02-28T08:35:05;99650.19;;;2.38;73.61
5455;BME280;2750;49.050;9.250;2023-02-28T08:40:09;99645.09;;;2.48;71.85
5455;BME280;2750;49.050;9.250;2023-02-28T08:45:11;99640.78;;;2.65;72.26
5455;BME280;2750;49.050;9.250;2023-02-28T08:50:12;99643.97;;;3.50;70.05
5455;BME280;2750;49.050;9.250;2023-02-28T08:55:16;99640.44;;;3.77;68.37
5455;BME280;2750;49.050;9.250;2023-02-28T09:00:18;99643.81;;;3.87;67.90
5455;BME280;2750;49.050;9.250;2023-02-28T09:05:20;99645.66;;;3.60;68.62
5455;BME280;2750;49.050;9.250;2023-02-28T09:10:23;99633.47;;;3.97;66.65
5455;BME280;2750;49.050;9.250;2023-02-28T09:15:24;99638.25;;;4.46;65.53
5455;BME280;2750;49.050;9.250;2023-02-28T09:20:26;99631.38;;;5.33;64.81
5455;BME280;2750;49.050;9.250;2023-02-28T09:25:29;99630.06;;;3.98;65.91
5455;BME280;2750;49.050;9.250;2023-02-28T09:30:30;99637.19;;;4.71;65.72
5455;BME280;2750;49.050;9.250;2023-02-28T09:35:32;99638.09;;;4.65;65.14
5455;BME280;2750;49.050;9.250;2023-02-28T09:40:37;99631.75;;;5.01;64.76
5455;BME280;2750;49.050;9.250;2023-02-28T09:45:42;99639.34;;;5.12;64.86
5455;BME280;2750;49.050;9.250;2023-02-28T09:50:47;99646.16;;;5.17;64.34
5455;BME280;2750;49.050;9.250;2023-02-28T09:55:53;99637.53;;;4.25;65.50
5455;BME280;2750;49.050;9.250;2023-02-28T10:01:00;99639.41;;;4.08;66.01
5455;BME280;2750;49.050;9.250;2023-02-28T10:06:09;99644.47;;;4.16;66.54
5455;BME280;2750;49.050;9.250;2023-02-28T10:11:16;99646.69;;;4.63;65.89
5455;BME280;2750;49.050;9.250;2023-02-28T10:16:24;99647.91;;;5.12;64.49
5455;BME280;2750;49.050;9.250;2023-02-28T10:21:31;99641.25;;;5.66;62.91
5455;BME280;2750;49.050;9.250;2023-02-28T10:26:36;99651.06;;;4.52;63.96
5455;BME280;2750;49.050;9.250;2023-02-28T10:31:38;99646.41;;;4.93;62.71
5455;BME280;2750;49.050;9.250;2023-02-28T10:36:41;99645.00;;;5.43;62.39
5455;BME280;2750;49.050;9.250;2023-02-28T10:41:45;99639.81;;;6.11;60.69
5455;BME280;2750;49.050;9.250;2023-02-28T10:46:48;99640.16;;;5.84;60.51
5455;BME280;2750;49.050;9.250;2023-02-28T10:51:52;99651.72;;;6.20;60.64
5455;BME280;2750;49.050;9.250;2023-02-28T10:57:16;99648.00;;;5.76;60.78
5455;BME280;2750;49.050;9.250;2023-02-28T11:02:30;99645.75;;;5.51;61.65
5455;BME280;2750;49.050;9.250;2023-02-28T11:07:33;99636.38;;;5.45;61.79
5455;BME280;2750;49.050;9.250;2023-02-28T11:12:37;99630.19;;;5.60;61.42
5455;BME280;2750;49.050;9.250;2023-02-28T11:17:42;99643.41;;;5.31;61.83
5455;BME280;2750;49.050;9.250;2023-02-28T11:22:45;99626.31;;;5.28;62.15
5455;BME280;2750;49.050;9.250;2023-02-28T11:27:50;99622.25;;;5.06;62.05
5455;BME280;2750;49.050;9.250;2023-02-28T11:32:52;99627.41;;;5.03;62.58
5455;BME280;2750;49.050;9.250;2023-02-28T11:37:53;99621.25;;;5.18;63.36
5455;BME280;2750;49.050;9.250;2023-02-28T11:43:04;99621.25;;;5.90;62.60
5455;BME280;2750;49.050;9.250;2023-02-28T11:48:16;99621.13;;;5.97;61.52
5455;BME280;2750;49.050;9.250;2023-02-28T11:53:29;99623.25;;;6.26;60.10
5455;BME280;2750;49.050;9.250;2023-02-28T11:58:48;99616.63;;;6.10;60.75
5455;BME280;2750;49.050;9.250;2023-02-28T12:04:04;99613.50;;;6.45;60.55
5455;BME280;2750;49.050;9.250;2023-02-28T12:09:23;99606.69;;;6.42;60.60
5455;BME280;2750;49.050;9.250;2023-02-28T12:14:57;99615.28;;;5.85;61.04
5455;BME280;2750;49.050;9.250;2023-02-28T12:20:15;99609.00;;;6.05;62.02
5455;BME280;2750;49.050;9.250;2023-02-28T12:25:41;99601.94;;;6.67;60.40
5455;BME280;2750;49.050;9.250;2023-02-28T12:30:51;99589.69;;;6.81;60.03
5455;BME280;2750;49.050;9.250;2023-02-28T12:35:56;99587.09;;;6.81;58.71
5455;BME280;2750;49.050;9.250;2023-02-28T12:41:00;99583.81;;;6.73;58.94
5455;BME280;2750;49.050;9.250;2023-02-28T12:46:09;99586.03;;;6.93;59.67
5455;BME280;2750;49.050;9.250;2023-02-28T12:51:13;99587.38;;;6.14;60.36
5455;BME280;2750;49.050;9.250;2023-02-28T12:56:21;99580.19;;;6.36;60.86
5455;BME280;2750;49.050;9.250;2023-02-28T13:07:33;99576.53;;;6.47;60.51
5455;BME280;2750;49.050;9.250;2023-02-28T13:12:47;99571.59;;;7.26;59.22
5455;BME280;2750;49.050;9.250;2023-02-28T13:17:51;99569.31;;;7.52;58.40
5455;BME280;2750;49.050;9.250;2023-02-28T13:22:54;99562.66;;;7.82;59.02
5455;BME280;2750;49.050;9.250;2023-02-28T13:27:57;99557.25;;;7.54;58.33
5455;BME280;2750;49.050;9.250;2023-02-28T13:33:24;99558.16;;;7.10;60.73
5455;BME280;2750;49.050;9.250;2023-02-28T13:38:43;99555.63;;;7.08;59.06
5455;BME280;2750;49.050;9.250;2023-02-28T13:43:59;99539.75;;;6.39;61.72
5455;BME280;2750;49.050;9.250;2023-02-28T13:49:25;99564.47;;;6.95;60.98
5455;BME280;2750;49.050;9.250;2023-02-28T13:54:38;99553.50;;;6.84;60.07
5455;BME280;2750;49.050;9.250;2023-02-28T14:00:05;99557.53;;;7.40;59.54
5455;BME280;2750;49.050;9.250;2023-02-28T14:05:13;99543.13;;;7.68;59.13
5455;BME280;2750;49.050;9.250;2023-02-28T14:10:24;99554.22;;;7.74;59.83
5455;BME280;2750;49.050;9.250;2023-02-28T14:20:45;99559.81;;;8.28;57.84
5455;BME280;2750;49.050;9.250;2023-02-28T14:25:58;99555.31;;;6.81;60.42
5455;BME280;2750;49.050;9.250;2023-02-28T14:31:07;99555.06;;;6.93;60.40
5455;BME280;2750;49.050;9.250;2023-02-28T14:36:18;99545.31;;;7.48;59.97
5455;BME280;2750;49.050;9.250;2023-02-28T14:41:27;99557.03;;;7.23;59.43
5455;BME280;2750;49.050;9.250;2023-02-28T14:46:36;99551.78;;;7.28;58.91
5455;BME280;2750;49.050;9.250;2023-02-28T14:51:39;99557.38;;;8.22;58.00
5455;BME280;2750;49.050;9.250;2023-02-28T14:56:42;99557.75;;;8.05;57.93
5455;BME280;2750;49.050;9.250;2023-02-28T15:01:43;99551.72;;;7.31;59.54
5455;BME280;2750;49.050;9.250;2023-02-28T15:06:45;99564.91;;;6.72;61.34
5455;BME280;2750;49.050;9.250;2023-02-28T15:11:49;99565.19;;;6.57;62.21
5455;BME280;2750;49.050;9.250;2023-02-28T15:16:55;99563.97;;;6.75;61.88
5455;BME280;2750;49.050;9.250;2023-02-28T15:22:01;99563.25;;;6.68;61.80
5455;BME280;2750;49.050;9.250;2023-02-28T15:27:07;99568.38;;;7.16;60.67
5455;BME280;2750;49.050;9.250;2023-02-28T15:32:23;99566.16;;;7.39;59.86
5455;BME280;2750;49.050;9.250;2023-02-28T15:37:37;99570.56;;;6.91;61.19
5455;BME280;2750;49.050;9.250;2023-02-28T15:42:40;99575.41;;;7.08;59.52
5455;BME280;2750;49.050;9.250;2023-02-28T15:47:45;99571.34;;;6.96;59.79
5455;BME280;2750;49.050;9.250;2023-02-28T15:52:47;99568.41;;;6.70;60.56
5455;BME280;2750;49.050;9.250;2023-02-28T15:57:53;99567.81;;;7.00;59.07
5455;BME280;2750;49.050;9.250;2023-02-28T16:02:57;99573.41;;;7.22;58.75
5455;BME280;2750;49.050;9.250;2023-02-28T16:08:00;99573.41;;;7.22;59.48
5455;BME280;2750;49.050;9.250;2023-02-28T16:13:03;99571.41;;;6.92;59.64
5455;BME280;2750;49.050;9.250;2023-02-28T16:18:04;99574.34;;;6.73;60.43
5455;BME280;2750;49.050;9.250;2023-02-28T16:23:09;99576.03;;;6.74;59.97
5455;BME280;2750;49.050;9.250;2023-02-28T16:28:17;99580.38;;;6.71;59.79
5455;BME280;2750;49.050;9.250;2023-02-28T16:33:20;99584.09;;;6.58;60.82
5455;BME280;2750;49.050;9.250;2023-02-28T16:38:21;99597.44;;;6.31;61.04
5455;BME280;2750;49.050;9.250;2023-02-28T16:43:26;99600.97;;;6.23;60.92
5455;BME280;2750;49.050;9.250;2023-02-28T16:48:28;99599.81;;;6.43;60.21
5455;BME280;2750;49.050;9.250;2023-02-28T16:53:31;99609.91;;;6.55;60.95
5455;BME280;2750;49.050;9.250;2023-02-28T16:58:34;99615.53;;;6.28;60.93
5455;BME280;2750;49.050;9.250;2023-02-28T17:03:36;99619.53;;;5.87;62.37
5455;BME280;2750;49.050;9.250;2023-02-28T17:08:38;99622.91;;;5.94;62.49
5455;BME280;2750;49.050;9.250;2023-02-28T17:13:41;99622.31;;;5.72;63.06
5455;BME280;2750;49.050;9.250;2023-02-28T17:18:42;99630.13;;;5.66;63.20
5455;BME280;2750;49.050;9.250;2023-02-28T17:23:44;99628.34;;;5.68;63.75
5455;BME280;2750;49.050;9.250;2023-02-28T17:28:47;99642.28;;;5.55;64.12
5455;BME280;2750;49.050;9.250;2023-02-28T17:33:48;99646.16;;;5.17;65.11
5455;BME280;2750;49.050;9.250;2023-02-28T17:38:51;99648.19;;;4.83;66.00
5455;BME280;2750;49.050;9.250;2023-02-28T17:43:54;99653.38;;;4.82;66.04
5455;BME280;2750;49.050;9.250;2023-02-28T17:48:56;99647.47;;;4.68;66.61
5455;BME280;2750;49.050;9.250;2023-02-28T17:53:58;99652.56;;;4.72;67.03
5455;BME280;2750;49.050;9.250;2023-02-28T17:59:01;99663.97;;;4.44;67.59
5455;BME280;2750;49.050;9.250;2023-02-28T18:04:03;99669.81;;;4.61;67.56
5455;BME280;2750;49.050;9.250;2023-02-28T18:09:04;99663.97;;;4.44;68.25
5455;BME280;2750;49.050;9.250;2023-02-28T18:14:08;99669.03;;;4.50;67.92
5455;BME280;2750;49.050;9.250;2023-02-28T18:19:10;99664.69;;;4.57;67.93
5455;BME280;2750;49.050;9.250;2023-02-28T18:24:17;99669.88;;;4.55;67.95
5455;BME280;2750;49.050;9.250;2023-02-28T18:29:22;99663.03;;;4.54;67.96
5455;BME280;2750;49.050;9.250;2023-02-28T18:34:24;99659.78;;;4.32;68.37
5455;BME280;2750;49.050;9.250;2023-02-28T18:39:28;99648.72;;;4.21;69.05
5455;BME280;2750;49.050;9.250;2023-02-28T18:44:31;99653.81;;;4.26;69.16
5455;BME280;2750;49.050;9.250;2023-02-28T18:49:33;99653.06;;;4.10;69.53
5455;BME280;2750;49.050;9.250;2023-02-28T18:54:35;99653.19;;;3.94;69.59
5455;BME280;2750;49.050;9.250;2023-02-28T18:59:37;99656.47;;;4.15;69.37
5455;BME280;2750;49.050;9.250;2023-02-28T19:04:40;99659.97;;;4.05;69.64
5455;BME280;2750;49.050;9.250;2023-02-28T19:09:41;99664.38;;;3.82;69.96
5455;BME280;2750;49.050;9.250;2023-02-28T19:14:44;99666.91;;;3.85;70.03
5455;BME280;2750;49.050;9.250;2023-02-28T19:19:46;99666.03;;;3.91;69.97
5455;BME280;2750;49.050;9.250;2023-02-28T19:24:48;99661.84;;;3.68;70.42
5455;BME280;2750;49.050;9.250;2023-02-28T19:29:52;99664.38;;;3.82;70.46
5455;BME280;2750;49.050;9.250;2023-02-28T19:34:53;99669.56;;;3.71;70.50
5455;BME280;2750;49.050;9.250;2023-02-28T19:39:55;99664.38;;;3.82;70.90
5455;BME280;2750;49.050;9.250;2023-02-28T19:44:58;99667.81;;;3.76;70.99
5455;BME280;2750;49.050;9.250;2023-02-28T19:50:00;99663.34;;;4.07;70.33
5455;BME280;2750;49.050;9.250;2023-02-28T19:55:01;99669.59;;;3.61;70.66
5455;BME280;2750;49.050;9.250;2023-02-28T20:00:06;99674.81;;;3.33;71.66
5455;BME280;2750;49.050;9.250;2023-02-28T20:05:08;99676.63;;;2.89;73.71
5455;BME280;2750;49.050;9.250;2023-02-28T20:10:11;99674.06;;;3.01;73.76
5455;BME280;2750;49.050;9.250;2023-02-28T20:15:14;99674.06;;;2.34;75.32
5455;BME280;2750;49.050;9.250;2023-02-28T20:20:16;99677.50;;;2.53;75.58
5455;BME280;2750;49.050;9.250;2023-02-28T20:25:18;99674.94;;;2.21;77.33
5455;BME280;2750;49.050;9.250;2023-02-28T20:30:21;99670.66;;;2.28;76.67
5455;BME280;2750;49.050;9.250;2023-02-28T20:35:24;99670.69;;;2.60;76.25
5455;BME280;2750;49.050;9.250;2023-02-28T20:40:25;99663.84;;;2.54;76.07
5455;BME280;2750;49.050;9.250;2023-02-28T20:45:28;99668.13;;;2.51;76.52
5455;BME280;2750;49.050;9.250;2023-02-28T20:50:31;99664.69;;;2.38;77.09
5455;BME280;2750;49.050;9.250;2023-02-28T20:55:32;99680.06;;;2.41;76.23
5455;BME280;2750;49.050;9.250;2023-02-28T21:00:35;99668.13;;;2.60;76.15
5455;BME280;2750;49.050;9.250;2023-02-28T21:05:36;99664.72;;;2.76;75.85
5455;BME280;2750;49.050;9.250;2023-02-28T21:10:38;99670.66;;;2.54;76.05
5455;BME280;2750;49.050;9.250;2023-02-28T21:15:41;99657.03;;;2.41;76.74
5455;BME280;2750;49.050;9.250;2023-02-28T21:20:42;99657.88;;;2.32;76.61
5455;BME280;2750;49.050;9.250;2023-02-28T21:25:44;99656.16;;;2.18;77.43
5455;BME280;2750;49.050;9.250;2023-02-28T21:30:47;99667.25;;;2.32;76.79
5455;BME280;2750;49.050;9.250;2023-02-28T21:35:48;99665.56;;;2.54;75.95
5455;BME280;2750;49.050;9.250;2023-02-28T21:40:52;99665.53;;;2.81;75.88
5455;BME280;2750;49.050;9.250;2023-02-28T21:45:54;99659.56;;;2.70;76.08
5455;BME280;2750;49.050;9.250;2023-02-28T21:50:57;99658.72;;;2.39;76.07
5455;BME280;2750;49.050;9.250;2023-02-28T21:56:01;99650.22;;;2.45;75.96
5455;BME280;2750;49.050;9.250;2023-02-28T22:01:06;99666.38;;;2.19;76.61
5455;BME280;2750;49.050;9.250;2023-02-28T22:06:09;99661.28;;;2.47;76.43
5455;BME280;2750;49.050;9.250;2023-02-28T22:11:12;99663.84;;;2.25;77.06
5455;BME280;2750;49.050;9.250;2023-02-28T22:16:18;99659.56;;;2.30;76.02
5455;BME280;2750;49.050;9.250;2023-02-28T22:21:21;99668.03;;;1.84;77.82
5455;BME280;2750;49.050;9.250;2023-02-28T22:26:23;99659.59;;;2.33;78.00
5455;BME280;2750;49.050;9.250;2023-02-28T22:31:28;99656.16;;;2.28;76.73
5455;BME280;2750;49.050;9.250;2023-02-28T22:36:29;99656.09;;;1.83;77.87
5455;BME280;2750;49.050;9.250;2023-02-28T22:41:31;99660.34;;;1.79;77.93
5455;BME280;2750;49.050;9.250;2023-02-28T22:46:34;99660.38;;;1.93;77.66
5455;BME280;2750;49.050;9.250;2023-02-28T22:51:36;99657.63;;;1.32;79.62
5455;BME280;2750;49.050;9.250;2023-02-28T22:56:37;99649.06;;;1.30;79.38
5455;BME280;2750;49.050;9.250;2023-02-28T23:01:41;99648.16;;;1.19;80.08
5455;BME280;2750;49.050;9.250;2023-02-28T23:06:44;99645.59;;;1.07;80.53
5455;BME280;2750;49.050;9.250;2023-02-28T23:11:47;99649.13;;;1.33;80.33
5455;BME280;2750;49.050;9.250;2023-02-28T23:16:52;99652.63;;;1.57;79.86
5455;BME280;2750;49.050;9.250;2023-02-28T23:21:54;99659.28;;;1.30;79.92
5455;BME280;2750;49.050;9.250;2023-02-28T23:26:57;99650.03;;;1.61;78.45
5455;BME280;2750;49.050;9.250;2023-02-28T23:32:01;99649.19;;;1.52;79.39
5455;BME280;2750;49.050;9.250;2023-02-28T23:37:02;99650.88;;;1.54;78.37
5455;BME280;2750;49.050;9.250;2023-02-28T23:42:04;99647.47;;;1.54;79.08
5455;BME280;2750;49.050;9.250;2023-02-28T23:47:07;99658.59;;;1.63;78.03
5455;BME280;2750;49.050;9.250;2023-02-28T23:52:12;99644.09;;;1.65;77.63
5455;BME280;2750;49.050;9.250;2023-02-28T23:57:13;99648.22;;;1.31;79.19
